CheckWX is a tool to help pilots better visualize weather data.  It is not intended as a substitute for an official pre-flight weather briefing.

18:05:03 UTC

ENST METAR
Sandnessjøen , Stokka Airport
Alstahaug, Norway
Current

15 mins ago

ENST 241750Z 13006KT 080V210 CAVOK 16/03 Q1020 RMK WIND 300FT 13011KT
Observed
Apr-24 @ 17:50 UTC
Wind
  • 130° at 6 KTS
Visibility
10,000+ meters
Flight Rules
VFR
Cloud Levels
  • Clear skies
Temperature
16°C / 61°F
Dewpoint
C / 37°F
Humidity
42%
Altimeter
30.12" Hg
Pressure
1019.92 hPa
Previous

45 mins ago

ENST 241720Z 13004KT 090V190 CAVOK 16/02 Q1020 RMK WIND 300FT 11008KT
Observed
Apr-24 @ 17:20 UTC
Wind
  • 130° at 4 KTS
Visibility
10,000+ meters
Flight Rules
VFR
Cloud Levels
  • Clear skies
Temperature
16°C / 61°F
Dewpoint
C / 36°F
Humidity
39%
Altimeter
30.12" Hg
Pressure
1019.92 hPa
Previous

1 hour ago

ENST 241650Z VRB03KT CAVOK 17/01 Q1020 RMK WIND 300FT 15006KT
Observed
Apr-24 @ 16:50 UTC
Wind
  • Variable at 3 KTS
Visibility
10,000+ meters
Flight Rules
VFR
Cloud Levels
  • Clear skies
Temperature
17°C / 63°F
Dewpoint
C / 34°F
Humidity
34%
Altimeter
30.12" Hg
Pressure
1019.92 hPa